Time;durP1;ratioP1;P1;durP2;ratioP2;P2;SDS_P1;SDS_P2;PMS_P1;PMS_P2;Temp;Humidity;BMP_temperature;BMP_pressure;BME280_temperature;BME280_humidity;BME280_pressure;Samples;Min_cycle;Max_cycle;Signal;HPM_P1;HPM_P2
2021/07/09 00:02:04;;;;;;;5.97;4.30;;;;;;;26.64;38.92;101227.38;4411689;32;20352;-89
2021/07/09 00:04:31;;;;;;;9.55;4.87;;;;;;;26.78;38.59;101234.84;4415552;32;20045;-89
2021/07/09 00:06:57;;;;;;;9.18;5.00;;;;;;;26.83;38.53;101228.25;4398672;32;20068;-91
2021/07/09 00:09:24;;;;;;;8.20;4.97;;;;;;;26.79;38.66;101230.66;4413528;32;20297;-90
2021/07/09 00:11:51;;;;;;;14.70;5.20;;;;;;;26.83;38.91;101228.25;4412307;32;20089;-90
2021/07/09 00:14:22;;;;;;;7.50;4.75;;;;;;;26.70;39.32;101225.22;4413537;32;20362;-88
2021/07/09 00:16:48;;;;;;;8.52;4.87;;;;;;;26.70;39.47;101223.13;4414014;32;20187;-89
2021/07/09 00:19:15;;;;;;;7.32;4.72;;;;;;;26.54;39.70;101226.16;4409383;32;20065;-91
2021/07/09 00:21:41;;;;;;;6.82;4.47;;;;;;;26.79;39.20;101224.88;4410408;32;20089;-89
2021/07/09 00:24:09;;;;;;;11.70;4.97;;;;;;;26.77;39.15;101227.53;4413272;32;20026;-89
2021/07/09 00:26:36;;;;;;;8.00;4.97;;;;;;;26.67;39.63;101229.19;4398902;32;20475;-89
2021/07/09 00:29:03;;;;;;;8.40;5.32;;;;;;;26.54;39.66;101229.03;4412092;32;20056;-89
2021/07/09 00:31:31;;;;;;;9.48;4.82;;;;;;;26.76;39.32;101232.53;4408112;32;20504;-89
2021/07/09 00:33:58;;;;;;;8.15;4.97;;;;;;;26.63;39.71;101231.59;4411095;32;20101;-90
2021/07/09 00:36:24;;;;;;;8.75;4.70;;;;;;;26.41;40.12;101232.53;4409320;32;20018;-91
2021/07/09 00:38:50;;;;;;;9.02;5.12;;;;;;;26.66;39.47;101230.53;4409553;32;20037;-89
2021/07/09 00:41:16;;;;;;;11.23;5.62;;;;;;;26.60;39.51;101236.31;4410696;32;20057;-90
2021/07/09 00:43:42;;;;;;;7.75;4.87;;;;;;;26.65;39.23;101244.19;4413993;32;20060;-89
2021/07/09 00:46:07;;;;;;;13.65;5.22;;;;;;;26.74;39.24;101237.25;4410153;32;20037;-90
2021/07/09 00:48:34;;;;;;;9.32;5.20;;;;;;;26.75;39.18;101245.38;4411350;32;20026;-89
2021/07/09 00:51:03;;;;;;;9.05;5.53;;;;;;;26.85;39.26;101242.94;4413653;32;20066;-90
2021/07/09 00:53:29;;;;;;;8.88;5.03;;;;;;;26.65;39.67;101241.28;4398935;32;20078;-89
2021/07/09 00:55:55;;;;;;;10.30;5.68;;;;;;;26.52;39.64;101244.00;4410597;32;20061;-90
2021/07/09 00:58:24;;;;;;;7.28;5.00;;;;;;;26.52;39.56;101237.44;4411567;32;20039;-91
2021/07/09 01:00:50;;;;;;;7.93;5.10;;;;;;;26.74;39.21;101243.03;4411032;32;20110;-89
2021/07/09 01:03:16;;;;;;;6.90;4.90;;;;;;;26.79;39.16;101234.31;4411365;32;20074;-91
2021/07/09 01:05:42;;;;;;;13.73;5.32;;;;;;;26.82;39.00;101238.25;4396289;32;20349;-89
2021/07/09 01:08:08;;;;;;;8.70;5.60;;;;;;;26.68;38.78;101233.66;4411678;32;20042;-89
2021/07/09 01:10:35;;;;;;;8.50;5.30;;;;;;;26.80;38.58;101240.87;4410182;32;20320;-89
2021/07/09 01:13:01;;;;;;;9.02;5.25;;;;;;;26.76;38.50;101235.41;4409780;32;20095;-89
2021/07/09 01:15:27;;;;;;;7.72;5.37;;;;;;;26.89;38.11;101243.41;4409184;32;20033;-89
2021/07/09 01:17:53;;;;;;;7.25;5.30;;;;;;;26.97;37.87;101232.84;4393498;32;20037;-89
2021/07/09 01:20:20;;;;;;;8.68;5.65;;;;;;;27.02;37.90;101232.78;4410148;32;20117;-90
2021/07/09 01:22:48;;;;;;;7.05;5.03;;;;;;;27.19;37.58;101238.38;4408939;32;20035;-90
2021/07/09 01:25:19;;;;;;;9.38;5.75;;;;;;;27.27;37.49;101227.03;4413870;32;20073;-91
2021/07/09 01:27:47;;;;;;;11.75;5.65;;;;;;;27.36;37.22;101226.66;4410289;32;20695;-89
2021/07/09 01:30:16;;;;;;;8.07;5.95;;;;;;;27.36;37.15;101224.53;4399617;32;20060;-90
2021/07/09 01:32:42;;;;;;;9.55;5.62;;;;;;;27.28;37.39;101222.78;4414168;32;20015;-88
2021/07/09 01:35:08;;;;;;;9.63;5.25;;;;;;;27.13;37.66;101220.31;4422392;32;20010;-90
2021/07/09 01:37:34;;;;;;;8.68;5.25;;;;;;;27.13;37.98;101217.44;4409550;32;20061;-89
2021/07/09 01:40:01;;;;;;;7.40;5.03;;;;;;;27.09;37.81;101222.72;4410576;32;20030;-90
2021/07/09 01:42:27;;;;;;;8.38;5.30;;;;;;;27.13;37.67;101211.66;4411183;32;20397;-90
2021/07/09 01:44:52;;;;;;;9.93;5.43;;;;;;;26.93;37.64;101210.03;4408820;32;20104;-90
2021/07/09 01:47:19;;;;;;;7.70;5.12;;;;;;;26.83;37.82;101211.72;4399132;32;20136;-89
2021/07/09 01:50:02;;;;;;;6.72;5.15;;;;;;;26.74;37.90;101217.84;4393957;32;20462;-89
2021/07/09 01:52:28;;;;;;;7.05;4.82;;;;;;;27.24;37.14;101211.53;4399072;32;20030;-90
2021/07/09 01:54:55;;;;;;;8.20;4.60;;;;;;;26.93;37.55;101218.69;4409034;32;20053;-90
2021/07/09 01:57:21;;;;;;;11.65;5.70;;;;;;;26.91;38.03;101217.69;4411498;32;20155;-89
2021/07/09 01:59:47;;;;;;;9.15;5.37;;;;;;;26.43;39.14;101220.47;4410454;32;20042;-91
2021/07/09 02:02:14;;;;;;;8.80;5.60;;;;;;;26.39;39.39;101217.09;4409544;32;20022;-90
2021/07/09 02:04:45;;;;;;;8.65;5.72;;;;;;;26.40;39.46;101218.66;4408129;32;20072;-89
2021/07/09 02:07:11;;;;;;;10.52;5.95;;;;;;;26.53;39.37;101221.69;4397457;32;20102;-90
2021/07/09 02:09:37;;;;;;;9.80;6.57;;;;;;;26.20;39.75;101213.31;4413510;32;20031;-90
2021/07/09 02:12:03;;;;;;;9.13;5.90;;;;;;;26.07;39.86;101216.81;4395286;32;20103;-89
2021/07/09 02:14:29;;;;;;;9.77;5.75;;;;;;;26.12;39.84;101215.19;4407058;32;20363;-90
2021/07/09 02:16:55;;;;;;;9.75;5.57;;;;;;;25.98;40.02;101216.34;4412074;32;20053;-89
2021/07/09 02:19:20;;;;;;;7.57;4.68;;;;;;;25.91;40.17;101217.69;4410688;32;20418;-90
2021/07/09 02:21:47;;;;;;;8.45;5.55;;;;;;;25.79;40.52;101221.94;4407206;32;20419;-90
2021/07/09 02:24:15;;;;;;;7.43;5.22;;;;;;;25.98;40.35;101227.91;4408095;32;20057;-89
2021/07/09 02:26:42;;;;;;;10.90;5.50;;;;;;;25.90;40.65;101218.22;4413327;32;20822;-90
2021/07/09 02:29:07;;;;;;;11.20;5.72;;;;;;;25.72;40.86;101216.75;4409325;32;20541;-90
2021/07/09 02:31:33;;;;;;;10.55;5.95;;;;;;;25.55;41.04;101216.03;4412197;32;20052;-89
2021/07/09 02:34:00;;;;;;;12.70;6.22;;;;;;;25.54;41.08;101205.84;4409370;32;20481;-90
2021/07/09 02:36:26;;;;;;;8.85;5.57;;;;;;;25.57;41.28;101207.66;4391319;32;20419;-89
2021/07/09 02:38:53;;;;;;;8.25;5.93;;;;;;;25.50;nan;101208.22;4408801;32;20116;-89
2021/07/09 02:41:19;;;;;;;8.57;5.85;;;;;;;25.38;41.47;101201.69;4409927;32;20498;-89
2021/07/09 02:43:45;;;;;;;8.88;5.75;;;;;;;25.28;41.52;101199.66;4407490;32;20026;-88
2021/07/09 02:46:11;;;;;;;8.07;6.05;;;;;;;25.22;41.79;101188.12;4408149;32;20101;-88
2021/07/09 02:48:36;;;;;;;13.07;6.35;;;;;;;25.25;41.67;101192.81;4414307;32;20058;-90
2021/07/09 02:51:02;;;;;;;7.90;5.37;;;;;;;25.16;41.65;101180.84;4407644;32;20448;-90
2021/07/09 02:53:28;;;;;;;10.95;5.68;;;;;;;25.12;41.63;101175.34;4408495;32;20423;-89
2021/07/09 02:55:55;;;;;;;9.60;5.37;;;;;;;25.18;41.69;101186.84;4412007;32;20411;-89
2021/07/09 02:58:21;;;;;;;9.90;5.72;;;;;;;25.31;41.49;101187.84;4402921;32;20139;-89
2021/07/09 03:00:47;;;;;;;8.50;5.62;;;;;;;25.22;41.56;101191.00;4408536;32;20058;-90
2021/07/09 03:03:13;;;;;;;9.10;5.43;;;;;;;25.18;41.73;101187.62;4409752;32;20060;-89
2021/07/09 03:05:38;;;;;;;9.57;5.50;;;;;;;25.19;41.69;101182.66;4411406;32;20112;-89
2021/07/09 03:08:05;;;;;;;9.73;6.22;;;;;;;24.99;41.91;101186.66;4409766;32;20129;-91
2021/07/09 03:10:30;;;;;;;10.80;6.22;;;;;;;25.19;41.75;101182.66;4413129;32;20039;-91
2021/07/09 03:12:56;;;;;;;9.07;6.00;;;;;;;24.97;41.83;101188.47;4411035;32;20523;-89
2021/07/09 03:15:22;;;;;;;11.73;6.78;;;;;;;24.97;41.61;101186.37;4412784;32;20482;-90
2021/07/09 03:17:47;;;;;;;11.77;7.15;;;;;;;24.94;41.46;101183.75;4410832;32;20352;-90
2021/07/09 03:20:13;;;;;;;13.60;6.93;;;;;;;25.03;41.32;101190.03;4412275;32;20072;-90
2021/07/09 03:22:39;;;;;;;11.18;6.57;;;;;;;25.16;41.22;101181.59;4396152;32;20095;-89
2021/07/09 03:25:09;;;;;;;12.35;5.90;;;;;;;25.14;41.18;101183.44;4412663;32;20045;-89
2021/07/09 03:27:36;;;;;;;8.82;5.85;;;;;;;25.34;40.98;101191.75;4413217;32;20030;-89
2021/07/09 03:30:03;;;;;;;10.98;6.62;;;;;;;25.23;41.15;101195.47;4412818;32;20426;-89
2021/07/09 03:32:29;;;;;;;12.20;6.65;;;;;;;25.32;41.08;101188.66;4409339;32;20089;-90
2021/07/09 03:34:56;;;;;;;11.48;6.50;;;;;;;25.04;41.49;101191.59;4414722;32;20077;-91
2021/07/09 03:37:21;;;;;;;9.73;6.25;;;;;;;24.95;41.67;101196.88;4412652;32;20088;-89
2021/07/09 03:39:47;;;;;;;9.35;5.97;;;;;;;25.04;41.52;101197.34;4409221;32;20165;-90
2021/07/09 03:42:13;;;;;;;10.57;6.35;;;;;;;25.01;41.59;101203.41;4411572;32;20416;-89
2021/07/09 03:44:38;;;;;;;9.85;6.00;;;;;;;24.91;41.84;101197.13;4410251;32;20080;-90
2021/07/09 03:47:04;;;;;;;12.95;6.78;;;;;;;24.86;41.84;101194.28;4397139;32;20137;-89
2021/07/09 03:49:30;;;;;;;10.98;7.18;;;;;;;24.96;41.76;101198.44;4411934;32;20431;-90
2021/07/09 03:51:55;;;;;;;8.35;5.62;;;;;;;24.79;42.23;101192.72;4413208;32;20035;-90
2021/07/09 03:54:21;;;;;;;9.63;5.80;;;;;;;24.82;42.03;101197.41;4409290;32;20520;-89
2021/07/09 03:56:47;;;;;;;9.93;6.00;;;;;;;24.88;41.86;101189.53;4397412;32;20055;-91
2021/07/09 03:59:12;;;;;;;12.60;6.30;;;;;;;24.88;41.85;101194.53;4397114;32;20065;-89
2021/07/09 04:01:38;;;;;;;11.35;7.00;;;;;;;24.88;41.71;101192.44;4412707;32;20157;-90
2021/07/09 04:04:04;;;;;;;15.57;6.05;;;;;;;24.89;41.67;101196.91;4413356;32;20088;-90
2021/07/09 04:06:30;;;;;;;10.43;6.47;;;;;;;25.03;41.51;101201.56;4412325;32;20074;-91
2021/07/09 04:08:56;;;;;;;12.48;7.28;;;;;;;24.98;41.69;101201.56;4410581;32;20453;-88
2021/07/09 04:11:22;;;;;;;13.00;6.75;;;;;;;25.04;41.44;101211.00;4410352;32;20145;-90
2021/07/09 04:13:47;;;;;;;8.40;6.07;;;;;;;25.10;41.03;101206.00;4412815;32;20081;-89
2021/07/09 04:16:13;;;;;;;13.90;7.28;;;;;;;25.18;41.11;101204.91;4411250;32;20472;-90
2021/07/09 04:18:39;;;;;;;11.70;6.75;;;;;;;25.03;41.41;101200.75;4409930;32;20035;-88
2021/07/09 04:21:05;;;;;;;12.77;6.55;;;;;;;25.26;40.81;101196.50;4409991;32;20073;-90
2021/07/09 04:23:30;;;;;;;10.00;6.87;;;;;;;25.21;40.94;101200.97;4406283;32;20105;-89
2021/07/09 04:25:57;;;;;;;11.52;6.60;;;;;;;25.21;40.89;101195.22;4412629;32;20038;-89
2021/07/09 04:28:22;;;;;;;12.18;7.18;;;;;;;25.22;40.96;101202.53;4416919;32;20138;-89
2021/07/09 04:30:49;;;;;;;13.68;8.02;;;;;;;25.25;40.94;101204.34;4417034;32;20525;-89
2021/07/09 04:33:16;;;;;;;14.30;7.93;;;;;;;25.15;41.09;101203.09;4410820;32;20041;-87
2021/07/09 04:35:42;;;;;;;12.70;7.25;;;;;;;25.19;41.10;101206.47;4415975;32;20030;-90
2021/07/09 04:38:08;;;;;;;12.23;7.70;;;;;;;24.99;41.12;101206.00;4408609;32;20156;-90
2021/07/09 04:40:33;;;;;;;9.35;6.78;;;;;;;25.12;40.89;101206.22;4410885;32;20151;-90
2021/07/09 04:42:59;;;;;;;13.18;8.18;;;;;;;25.19;40.93;101212.22;4411148;32;20095;-90
2021/07/09 04:45:25;;;;;;;12.15;7.37;;;;;;;25.29;40.78;101202.00;4426609;32;20019;-88
2021/07/09 04:47:51;;;;;;;10.90;7.47;;;;;;;25.20;40.97;101210.94;4413248;32;20034;-91
2021/07/09 04:50:16;;;;;;;13.95;6.93;;;;;;;25.19;40.76;101209.34;4411578;32;20064;-89
2021/07/09 04:52:42;;;;;;;10.27;6.93;;;;;;;25.18;40.94;101201.22;4412457;32;20479;-89
2021/07/09 04:55:09;;;;;;;11.85;7.55;;;;;;;25.33;40.83;101201.72;4413446;32;20042;-90
2021/07/09 04:57:34;;;;;;;7.32;5.00;;;;;;;25.36;40.53;101203.56;4412557;32;20412;-88
2021/07/09 05:00:00;;;;;;;11.07;6.37;;;;;;;25.20;39.88;101205.16;4411999;32;20116;-89
2021/07/09 05:02:26;;;;;;;9.77;6.32;;;;;;;25.29;40.05;101206.97;4411079;32;20097;-89
2021/07/09 05:04:52;;;;;;;12.48;6.70;;;;;;;25.37;40.33;101202.22;4415624;32;21345;-89
2021/07/09 05:07:18;;;;;;;13.18;6.28;;;;;;;25.51;40.07;101201.12;4410662;32;20394;-89
2021/07/09 05:09:43;;;;;;;14.05;6.75;;;;;;;25.45;40.17;101205.34;4408433;32;20102;-89
2021/07/09 05:12:09;;;;;;;9.35;5.80;;;;;;;25.55;39.96;101213.16;4399106;32;20078;-90
2021/07/09 05:14:35;;;;;;;9.27;5.82;;;;;;;25.61;39.61;101216.03;4411026;32;20110;-88
2021/07/09 05:17:01;;;;;;;8.50;5.35;;;;;;;25.55;39.36;101204.50;4407294;32;20081;-91
2021/07/09 05:19:27;;;;;;;8.73;5.45;;;;;;;25.58;39.46;101208.44;4396108;32;20112;-88
2021/07/09 05:21:53;;;;;;;8.18;5.45;;;;;;;25.57;39.70;101207.66;4411393;32;20030;-88
2021/07/09 05:24:19;;;;;;;8.50;5.12;;;;;;;25.72;39.35;101199.44;4410485;32;20291;-89
2021/07/09 05:26:47;;;;;;;9.82;5.50;;;;;;;25.90;39.07;101201.69;4397595;32;20445;-89
2021/07/09 05:29:12;;;;;;;8.38;5.60;;;;;;;26.05;38.91;101204.25;4409860;32;20418;-89
2021/07/09 05:31:40;;;;;;;6.45;4.37;;;;;;;26.19;38.41;101194.41;4409249;32;20074;-90
2021/07/09 05:34:05;;;;;;;8.45;4.78;;;;;;;26.07;38.46;101199.50;4399905;32;20103;-89
2021/07/09 05:36:31;;;;;;;10.30;5.18;;;;;;;26.18;38.18;101201.50;4409739;32;20514;-89
2021/07/09 05:38:57;;;;;;;8.20;4.62;;;;;;;26.21;38.00;101198.34;4411117;32;20064;-89
2021/07/09 05:41:23;;;;;;;7.35;4.65;;;;;;;26.45;37.68;101198.38;4410411;32;20037;-89
2021/07/09 05:43:49;;;;;;;7.75;4.68;;;;;;;26.55;37.44;101193.84;4395457;32;20142;-89
2021/07/09 05:46:15;;;;;;;6.40;4.53;;;;;;;26.65;37.39;101191.41;4409146;32;20041;-89
2021/07/09 05:48:41;;;;;;;6.75;4.50;;;;;;;26.87;37.12;101196.94;4410792;32;20056;-91
2021/07/09 05:51:07;;;;;;;7.55;4.85;;;;;;;26.84;37.00;101193.06;4409563;32;20098;-90
2021/07/09 05:53:33;;;;;;;8.57;5.07;;;;;;;26.93;36.93;101192.69;4394309;32;20090;-90
2021/07/09 05:55:59;;;;;;;6.65;4.62;;;;;;;27.04;36.73;101194.69;4409953;32;20082;-89
2021/07/09 05:58:25;;;;;;;7.53;4.68;;;;;;;27.00;36.71;101188.44;4396775;32;20026;-90
2021/07/09 06:00:51;;;;;;;9.93;5.18;;;;;;;27.39;36.40;101203.19;4395481;32;20443;-89
2021/07/09 06:03:17;;;;;;;8.27;5.10;;;;;;;27.28;36.46;101199.66;4410815;32;20084;-89
2021/07/09 06:05:43;;;;;;;8.73;4.70;;;;;;;27.48;36.25;101199.94;4409485;32;20495;-90
2021/07/09 06:08:09;;;;;;;9.60;5.35;;;;;;;27.28;36.56;101200.47;4410031;32;20483;-90
2021/07/09 06:10:37;;;;;;;7.60;4.97;;;;;;;27.46;36.30;101208.38;4408477;32;20380;-90
2021/07/09 06:13:04;;;;;;;8.18;4.95;;;;;;;27.81;35.91;101210.25;4397789;32;20436;-90
2021/07/09 06:15:30;;;;;;;8.10;4.72;;;;;;;27.82;35.76;101214.72;4398964;32;20088;-89
2021/07/09 06:17:56;;;;;;;8.13;5.12;;;;;;;27.85;35.63;101213.63;4396364;32;20049;-91
2021/07/09 06:20:22;;;;;;;10.07;5.15;;;;;;;27.92;35.42;101210.91;4419610;32;20216;-88
2021/07/09 06:22:48;;;;;;;6.37;4.55;;;;;;;27.95;35.51;101209.78;4421344;32;20454;-89
2021/07/09 06:25:15;;;;;;;9.52;5.05;;;;;;;28.05;35.14;101204.41;4411214;32;20367;-90
2021/07/09 06:27:41;;;;;;;7.22;4.70;;;;;;;28.37;34.90;101213.88;4410260;32;20049;-89
2021/07/09 06:30:08;;;;;;;7.53;4.60;;;;;;;28.20;34.81;101222.84;4408290;32;20110;-89
2021/07/09 06:32:33;;;;;;;8.38;4.75;;;;;;;28.40;34.70;101221.44;4414168;32;20128;-89
2021/07/09 06:35:00;;;;;;;7.32;5.28;;;;;;;28.17;34.83;101217.38;4414541;32;20081;-90
2021/07/09 06:37:25;;;;;;;8.32;4.32;;;;;;;28.36;34.65;101224.69;4410487;32;20030;-90
2021/07/09 06:39:51;;;;;;;6.70;4.85;;;;;;;28.37;34.87;101219.66;4410672;32;21269;-89
2021/07/09 06:42:17;;;;;;;6.75;4.40;;;;;;;28.35;34.83;101223.09;4410371;32;20146;-89
2021/07/09 06:44:43;;;;;;;6.20;4.22;;;;;;;28.43;34.83;101220.34;4399123;32;20065;-89
2021/07/09 06:47:08;;;;;;;6.62;5.10;;;;;;;28.48;34.41;101228.19;4397408;32;20059;-89
2021/07/09 06:49:34;;;;;;;6.82;4.65;;;;;;;28.71;34.14;101227.25;4396777;32;20077;-91
2021/07/09 06:52:00;;;;;;;8.25;4.62;;;;;;;28.85;34.05;101222.25;4391491;32;21531;-89
2021/07/09 06:54:26;;;;;;;6.00;3.72;;;;;;;29.28;33.32;101219.87;4398726;32;20073;-88
2021/07/09 06:56:52;;;;;;;6.03;3.33;;;;;;;29.23;33.15;101220.75;4412542;32;20042;-89
2021/07/09 06:59:18;;;;;;;7.70;4.45;;;;;;;29.13;32.61;101221.75;4394565;32;20101;-89
2021/07/09 07:01:44;;;;;;;5.68;3.67;;;;;;;29.32;32.09;101223.19;4417229;32;20042;-89
2021/07/09 07:04:10;;;;;;;5.03;3.47;;;;;;;29.30;32.32;101225.09;4409380;32;20430;-88
2021/07/09 07:06:37;;;;;;;5.68;3.03;;;;;;;29.33;31.92;101230.59;4405013;32;20037;-89
2021/07/09 07:09:03;;;;;;;5.18;3.80;;;;;;;29.15;31.77;101222.78;4405297;32;20070;-88
2021/07/09 07:11:30;;;;;;;3.83;3.00;;;;;;;29.40;31.68;101224.09;4406543;32;20122;-90
2021/07/09 07:13:56;;;;;;;7.43;3.28;;;;;;;29.60;31.27;101225.53;4406285;32;20666;-88
2021/07/09 07:16:22;;;;;;;5.40;3.60;;;;;;;29.86;30.67;101222.59;4403230;32;20609;-89
2021/07/09 07:18:49;;;;;;;6.82;3.72;;;;;;;29.72;31.05;101232.66;4413347;32;20060;-88
2021/07/09 07:21:15;;;;;;;4.57;3.50;;;;;;;29.67;30.76;101233.56;4406092;32;20042;-91
2021/07/09 07:23:41;;;;;;;5.35;3.62;;;;;;;29.75;30.67;101240.25;4408146;32;20079;-88
2021/07/09 07:26:07;;;;;;;4.25;2.95;;;;;;;29.80;30.68;101240.13;4408548;32;20080;-88
2021/07/09 07:28:33;;;;;;;6.45;3.70;;;;;;;30.13;30.26;101241.50;4411122;32;20087;-87
2021/07/09 07:30:59;;;;;;;7.20;3.78;;;;;;;29.95;30.41;101240.31;4394340;32;20193;-89
2021/07/09 07:33:25;;;;;;;6.05;4.03;;;;;;;30.05;30.22;101240.59;4410687;32;20034;-89
2021/07/09 07:35:50;;;;;;;4.85;3.20;;;;;;;30.18;30.09;101244.28;4394496;32;20080;-89
2021/07/09 07:38:16;;;;;;;5.60;3.30;;;;;;;29.99;30.24;101234.16;4409138;32;20014;-90
2021/07/09 07:40:42;;;;;;;4.37;3.30;;;;;;;30.20;29.87;101230.00;4410467;32;20144;-88
2021/07/09 07:43:08;;;;;;;5.03;3.35;;;;;;;30.01;30.70;101231.47;4407044;32;20157;-89
2021/07/09 07:45:34;;;;;;;4.55;3.58;;;;;;;30.49;30.06;101230.84;4410268;32;20462;-90
2021/07/09 07:48:00;;;;;;;4.15;3.22;;;;;;;30.71;29.50;101236.09;4412498;32;20702;-89
2021/07/09 07:50:27;;;;;;;5.85;3.40;;;;;;;30.27;30.12;101225.59;4409340;32;20070;-88
2021/07/09 07:52:54;;;;;;;3.85;3.35;;;;;;;30.36;30.00;101233.81;4413381;32;20224;-90
2021/07/09 07:55:20;;;;;;;5.25;3.53;;;;;;;30.50;29.73;101238.97;4414664;32;20119;-88
2021/07/09 07:57:46;;;;;;;4.60;3.08;;;;;;;30.43;29.99;101238.94;4398028;32;20415;-89
2021/07/09 08:00:13;;;;;;;5.40;3.50;;;;;;;29.95;30.43;101242.44;4408365;32;20076;-89
2021/07/09 08:02:39;;;;;;;5.53;3.53;;;;;;;30.25;30.19;101240.66;4390485;32;20648;-89
2021/07/09 08:05:09;;;;;;;4.68;3.37;;;;;;;30.37;30.23;101241.97;4411215;32;20617;-89
2021/07/09 08:07:35;;;;;;;6.18;3.55;;;;;;;30.57;30.11;101238.31;4410121;32;20445;-88
2021/07/09 08:10:01;;;;;;;3.90;3.40;;;;;;;29.79;31.11;101250.16;4405322;32;20038;-90
2021/07/09 08:12:28;;;;;;;5.30;3.17;;;;;;;30.11;30.55;101241.25;4392490;32;20440;-91
2021/07/09 08:14:54;;;;;;;3.95;3.33;;;;;;;30.12;30.40;101239.91;4414966;32;20130;-90
2021/07/09 08:17:20;;;;;;;4.50;3.42;;;;;;;30.27;29.66;101243.81;4395212;32;20136;-89
2021/07/09 08:19:46;;;;;;;3.97;3.00;;;;;;;30.61;29.58;101243.72;4419573;32;20064;-90
2021/07/09 08:22:12;;;;;;;5.65;3.35;;;;;;;30.42;29.94;101240.25;4409649;32;20046;-89
2021/07/09 08:24:37;;;;;;;7.78;3.92;;;;;;;30.52;29.69;101241.31;4413063;32;20204;-90
2021/07/09 08:27:03;;;;;;;4.90;3.55;;;;;;;30.69;29.48;101244.59;4414589;32;20512;-89
2021/07/09 08:29:29;;;;;;;5.65;3.97;;;;;;;30.78;29.37;101252.84;4409048;32;20096;-90
2021/07/09 08:31:57;;;;;;;7.18;3.30;;;;;;;30.90;29.33;101254.09;4348415;32;21298;-91
2021/07/09 08:34:23;;;;;;;5.35;3.50;;;;;;;31.04;29.12;101241.03;4388778;32;20050;-89
2021/07/09 08:36:49;;;;;;;3.90;3.30;;;;;;;30.97;29.01;101241.75;4403183;32;20085;-88
2021/07/09 08:39:17;;;;;;;28.62;12.02;;;;;;;30.83;29.38;101239.50;4400443;32;20265;-89
2021/07/09 08:41:44;;;;;;;6.82;3.72;;;;;;;31.13;29.13;101236.84;4397415;32;20026;-88
2021/07/09 08:44:11;;;;;;;6.22;3.60;;;;;;;31.37;28.55;101242.25;4402054;32;20085;-90
2021/07/09 08:46:37;;;;;;;4.50;3.70;;;;;;;31.47;28.34;101232.41;4398585;32;20459;-90
2021/07/09 08:49:07;;;;;;;4.62;3.53;;;;;;;31.54;28.30;101231.66;4389743;32;20215;-90
2021/07/09 08:51:33;;;;;;;4.20;3.40;;;;;;;31.95;27.93;101236.53;4406173;32;20473;-91
2021/07/09 08:53:59;;;;;;;3.83;3.10;;;;;;;31.97;27.86;101236.75;4386105;32;20442;-89
2021/07/09 08:56:25;;;;;;;3.62;2.80;;;;;;;31.75;27.35;101228.69;4388833;32;20305;-90
2021/07/09 08:58:51;;;;;;;4.90;3.00;;;;;;;31.90;27.23;101228.78;4385631;32;20038;-90
2021/07/09 09:01:17;;;;;;;5.97;3.25;;;;;;;32.02;26.92;101221.22;4399839;32;20104;-90
2021/07/09 09:03:42;;;;;;;3.75;3.08;;;;;;;32.25;27.15;101231.59;4405374;32;20186;-91
2021/07/09 09:06:15;;;;;;;4.50;3.00;;;;;;;32.21;26.81;101228.25;4395431;32;20042;-90
2021/07/09 09:08:41;;;;;;;5.68;3.05;;;;;;;32.84;26.31;101231.44;4403205;32;20357;-89
2021/07/09 09:11:07;;;;;;;4.85;3.03;;;;;;;32.79;26.11;101223.69;4399391;32;20427;-89
2021/07/09 09:13:35;;;;;;;3.67;2.87;;;;;;;32.85;26.05;101224.28;4398728;32;20505;-90
2021/07/09 09:21:21;;;;;;;4.37;3.20;;;;;;;34.42;24.09;101232.53;3967028;32;15023693;-73
2021/07/09 09:26:45;;;;;;;4.72;3.20;;;;;;;34.96;23.29;101232.91;3957181;32;15023356;-77
2021/07/09 09:29:31;;;;;;;3.28;2.80;;;;;;;34.96;23.29;101232.91;4409420;32;20076;-76
2021/07/09 09:32:00;;;;;;;5.30;2.83;;;;;;;34.94;23.31;101227.66;4407675;32;20364;-75
2021/07/09 09:34:47;;;;;;;6.85;3.28;;;;;;;35.25;23.05;101225.97;4399881;32;20061;-76
2021/07/09 09:37:17;;;;;;;5.03;3.20;;;;;;;35.07;23.35;101226.56;4407602;32;20750;-73
2021/07/09 09:39:45;;;;;;;5.28;2.83;;;;;;;35.55;22.76;101236.63;4410432;32;20055;-75
2021/07/09 09:42:22;;;;;;;4.93;2.92;;;;;;;35.01;22.81;101234.81;4396877;32;20081;-74
2021/07/09 09:44:51;;;;;;;3.50;2.67;;;;;;;35.14;23.04;101226.50;4416706;32;20119;-75
2021/07/09 09:47:20;;;;;;;2.95;2.50;;;;;;;34.81;23.06;101241.81;4400696;32;20145;-74
2021/07/09 09:49:53;;;;;;;3.50;2.85;;;;;;;34.85;23.07;101225.41;4407361;32;20040;-76
2021/07/09 09:52:36;;;;;;;4.18;2.97;;;;;;;34.78;23.53;101222.53;4409570;32;20382;-75
2021/07/09 09:55:06;;;;;;;4.12;2.95;;;;;;;35.05;23.27;101215.47;4401355;32;20123;-75
2021/07/09 09:57:32;;;;;;;3.95;2.97;;;;;;;35.34;23.00;101207.78;4413917;32;20042;-75
2021/07/09 09:59:58;;;;;;;5.25;3.08;;;;;;;35.60;22.71;101198.31;4402462;32;20076;-75
2021/07/09 10:02:24;;;;;;;4.22;2.87;;;;;;;35.67;22.72;101205.41;4399650;32;20073;-75
2021/07/09 10:04:52;;;;;;;3.33;2.58;;;;;;;36.22;21.63;101211.53;4395931;32;20081;-75
2021/07/09 10:07:19;;;;;;;4.45;3.40;;;;;;;36.63;21.43;101206.81;4392671;32;20533;-75
2021/07/09 10:09:46;;;;;;;3.50;2.53;;;;;;;36.51;21.87;101194.09;4393022;32;20115;-78
2021/07/09 10:12:17;;;;;;;4.40;2.67;;;;;;;36.51;21.56;101209.56;4375777;32;21011;-76
2021/07/09 10:14:45;;;;;;;5.75;2.70;;;;;;;37.02;20.97;101205.56;4394414;32;20108;-77
2021/07/09 10:17:16;;;;;;;3.30;2.42;;;;;;;37.08;20.78;101203.09;4383933;32;20077;-76
2021/07/09 10:19:46;;;;;;;5.03;2.70;;;;;;;36.61;20.97;101213.28;4398774;32;20083;-75
2021/07/09 10:22:12;;;;;;;7.22;2.50;;;;;;;36.30;21.15;101208.50;4388782;32;20096;-73
2021/07/09 10:24:43;;;;;;;2.97;2.58;;;;;;;36.65;20.85;101204.06;4398924;32;20196;-74
2021/07/09 10:27:12;;;;;;;3.25;2.60;;;;;;;36.89;20.39;101209.69;4388772;32;20038;-77
2021/07/09 10:29:47;;;;;;;6.10;2.80;;;;;;;37.29;20.23;101203.31;4401819;32;20537;-75
2021/07/09 10:32:31;;;;;;;3.28;2.30;;;;;;;36.88;20.08;101210.31;4391304;32;20506;-76
2021/07/09 10:34:57;;;;;;;2.80;2.50;;;;;;;36.78;20.05;101219.06;4385651;32;20038;-74
2021/07/09 10:37:32;;;;;;;5.68;2.37;;;;;;;36.00;20.76;101213.41;4393643;32;20092;-74
2021/07/09 10:40:19;;;;;;;6.10;2.50;;;;;;;35.54;21.33;101203.63;4376023;32;20101;-77
2021/07/09 10:42:49;;;;;;;3.30;2.40;;;;;;;35.61;20.96;101210.75;4394780;32;20132;-74
2021/07/09 10:53:26;;;;;;;4.32;2.42;;;;;;;38.01;19.06;101214.75;3956385;32;15023762;-76
2021/07/09 10:56:00;;;;;;;3.28;2.70;;;;;;;38.01;19.06;101214.75;4430765;32;20104;-74
2021/07/09 10:58:30;;;;;;;3.67;2.90;;;;;;;37.37;19.62;101195.91;4416209;32;20081;-76
2021/07/09 11:03:41;;;;;;;3.97;2.72;;;;;;;37.48;19.89;101197.44;3960668;32;15022592;-74
2021/07/09 11:06:31;;;;;;;3.40;2.62;;;;;;;37.48;19.89;101197.44;4395048;32;20080;-76
2021/07/09 11:11:50;;;;;;;3.12;2.30;;;;;;;38.02;19.44;101201.59;3939584;32;15728576;-76
2021/07/09 11:16:59;;;;;;;3.20;2.62;;;;;;;37.54;19.50;101184.00;3975011;32;15034842;-75
2021/07/09 11:19:34;;;;;;;2.87;2.30;;;;;;;37.54;19.50;101184.00;4412187;32;20156;-75
2021/07/09 11:22:04;;;;;;;4.20;2.92;;;;;;;37.63;19.38;101189.09;4430215;32;20088;-75
2021/07/09 11:24:35;;;;;;;4.65;3.00;;;;;;;37.43;19.83;101183.84;4414490;32;20104;-77
2021/07/09 11:27:04;;;;;;;4.32;2.90;;;;;;;36.54;20.64;101181.16;4429059;32;20113;-78
2021/07/09 11:29:33;;;;;;;2.87;2.55;;;;;;;36.58;20.65;101182.25;4419644;32;20140;-75
2021/07/09 11:34:39;;;;;;;4.65;2.90;;;;;;;36.51;20.92;101191.16;3949439;32;15733503;-77
2021/07/09 11:42:23;;;;;;;5.85;3.10;;;;;;;36.48;20.80;101178.53;3953542;32;15029077;-73
2021/07/09 11:44:53;;;;;;;5.82;3.70;;;;;;;36.48;20.80;101178.53;4426264;32;20426;-75
2021/07/09 11:49:58;;;;;;;3.70;2.90;;;;;;;38.07;19.37;101185.78;3960495;32;15025814;-78
2021/07/09 11:52:26;;;;;;;3.75;2.85;;;;;;;38.07;19.37;101185.78;4428777;32;20093;-76
2021/07/09 11:54:54;;;;;;;3.33;2.55;;;;;;;37.94;19.30;101178.25;4414466;32;20053;-76
2021/07/09 11:57:23;;;;;;;6.50;3.03;;;;;;;38.54;18.85;101175.28;4429629;32;20033;-76